sensor_id;sensor_type;location;lat;lon;timestamp;temperature;humidity
44695;DHT22;32845;59.422;17.930;2023-02-13T00:01:22;2.40;99.90
44695;DHT22;32845;59.422;17.930;2023-02-13T00:05:53;2.40;99.90
44695;DHT22;32845;59.422;17.930;2023-02-13T00:10:24;2.40;99.90
44695;DHT22;32845;59.422;17.930;2023-02-13T00:14:54;2.40;99.90
44695;DHT22;32845;59.422;17.930;2023-02-13T00:19:25;2.40;99.90
44695;DHT22;32845;59.422;17.930;2023-02-13T00:23:56;2.40;99.90
44695;DHT22;32845;59.422;17.930;2023-02-13T00:28:27;2.50;99.90
44695;DHT22;32845;59.422;17.930;2023-02-13T00:32:57;2.50;99.90
44695;DHT22;32845;59.422;17.930;2023-02-13T00:37:28;2.50;99.90
44695;DHT22;32845;59.422;17.930;2023-02-13T00:41:59;2.50;99.90
44695;DHT22;32845;59.422;17.930;2023-02-13T00:46:29;2.50;99.90
44695;DHT22;32845;59.422;17.930;2023-02-13T00:51:06;2.50;99.90
44695;DHT22;32845;59.422;17.930;2023-02-13T00:55:37;2.40;99.90
44695;DHT22;32845;59.422;17.930;2023-02-13T01:00:08;2.40;99.90
44695;DHT22;32845;59.422;17.930;2023-02-13T01:04:38;2.40;99.90
44695;DHT22;32845;59.422;17.930;2023-02-13T01:09:09;2.40;99.90
44695;DHT22;32845;59.422;17.930;2023-02-13T01:13:40;2.30;99.90
44695;DHT22;32845;59.422;17.930;2023-02-13T01:18:16;2.20;99.90
44695;DHT22;32845;59.422;17.930;2023-02-13T01:22:47;2.20;99.90
44695;DHT22;32845;59.422;17.930;2023-02-13T01:27:17;2.20;99.90
44695;DHT22;32845;59.422;17.930;2023-02-13T01:31:48;2.20;99.90
44695;DHT22;32845;59.422;17.930;2023-02-13T01:36:19;2.20;99.90
44695;DHT22;32845;59.422;17.930;2023-02-13T01:40:53;2.20;99.90
44695;DHT22;32845;59.422;17.930;2023-02-13T01:45:30;2.20;99.90
44695;DHT22;32845;59.422;17.930;2023-02-13T01:54:57;2.30;99.90
44695;DHT22;32845;59.422;17.930;2023-02-13T01:59:54;2.30;99.90
44695;DHT22;32845;59.422;17.930;2023-02-13T02:08:59;2.40;99.90
44695;DHT22;32845;59.422;17.930;2023-02-13T02:13:31;2.30;99.90
44695;DHT22;32845;59.422;17.930;2023-02-13T02:18:05;2.20;99.90
44695;DHT22;32845;59.422;17.930;2023-02-13T02:27:34;2.10;99.90
44695;DHT22;32845;59.422;17.930;2023-02-13T02:46:36;2.10;99.90
44695;DHT22;32845;59.422;17.930;2023-02-13T02:51:49;2.10;99.90
44695;DHT22;32845;59.422;17.930;2023-02-13T02:56:24;2.20;99.90
44695;DHT22;32845;59.422;17.930;2023-02-13T03:00:58;2.20;99.90
44695;DHT22;32845;59.422;17.930;2023-02-13T03:05:50;2.20;99.90
44695;DHT22;32845;59.422;17.930;2023-02-13T03:10:40;2.30;99.90
44695;DHT22;32845;59.422;17.930;2023-02-13T03:15:29;2.30;99.90
44695;DHT22;32845;59.422;17.930;2023-02-13T03:29:55;2.40;99.90
44695;DHT22;32845;59.422;17.930;2023-02-13T03:34:38;2.40;99.90
44695;DHT22;32845;59.422;17.930;2023-02-13T03:39:52;2.40;99.90
44695;DHT22;32845;59.422;17.930;2023-02-13T03:49:02;2.50;99.90
44695;DHT22;32845;59.422;17.930;2023-02-13T03:53:55;2.40;99.90
44695;DHT22;32845;59.422;17.930;2023-02-13T03:58:34;2.40;99.90
44695;DHT22;32845;59.422;17.930;2023-02-13T04:03:34;2.40;99.90
44695;DHT22;32845;59.422;17.930;2023-02-13T04:08:05;2.40;99.90
44695;DHT22;32845;59.422;17.930;2023-02-13T04:17:31;2.40;99.90
44695;DHT22;32845;59.422;17.930;2023-02-13T04:22:03;2.40;99.90
44695;DHT22;32845;59.422;17.930;2023-02-13T04:26:39;2.40;99.90
44695;DHT22;32845;59.422;17.930;2023-02-13T04:31:11;2.40;99.90
44695;DHT22;32845;59.422;17.930;2023-02-13T04:35:41;2.40;99.90
44695;DHT22;32845;59.422;17.930;2023-02-13T04:40:12;2.50;99.90
44695;DHT22;32845;59.422;17.930;2023-02-13T04:44:43;2.50;99.90
44695;DHT22;32845;59.422;17.930;2023-02-13T04:49:14;2.50;99.90
44695;DHT22;32845;59.422;17.930;2023-02-13T04:53:44;2.50;99.90
44695;DHT22;32845;59.422;17.930;2023-02-13T04:58:15;2.50;99.90
44695;DHT22;32845;59.422;17.930;2023-02-13T05:02:46;2.50;99.90
44695;DHT22;32845;59.422;17.930;2023-02-13T05:07:16;2.50;99.90
44695;DHT22;32845;59.422;17.930;2023-02-13T05:11:53;2.50;99.90
44695;DHT22;32845;59.422;17.930;2023-02-13T05:16:23;2.50;99.90
44695;DHT22;32845;59.422;17.930;2023-02-13T05:20:55;2.50;99.90
44695;DHT22;32845;59.422;17.930;2023-02-13T05:25:44;2.50;99.90
44695;DHT22;32845;59.422;17.930;2023-02-13T05:30:15;2.50;99.90
44695;DHT22;32845;59.422;17.930;2023-02-13T05:34:45;2.50;99.90
44695;DHT22;32845;59.422;17.930;2023-02-13T05:39:16;2.50;99.90
44695;DHT22;32845;59.422;17.930;2023-02-13T05:43:47;2.50;99.90
44695;DHT22;32845;59.422;17.930;2023-02-13T05:48:18;2.50;99.90
44695;DHT22;32845;59.422;17.930;2023-02-13T05:52:48;2.50;99.90
44695;DHT22;32845;59.422;17.930;2023-02-13T05:57:19;2.50;99.90
44695;DHT22;32845;59.422;17.930;2023-02-13T06:01:49;2.50;99.90
44695;DHT22;32845;59.422;17.930;2023-02-13T06:06:20;2.50;99.90
44695;DHT22;32845;59.422;17.930;2023-02-13T06:10:52;2.60;99.90
44695;DHT22;32845;59.422;17.930;2023-02-13T06:15:22;2.60;99.90
44695;DHT22;32845;59.422;17.930;2023-02-13T06:19:53;2.60;99.90
44695;DHT22;32845;59.422;17.930;2023-02-13T06:24:24;2.60;99.90
44695;DHT22;32845;59.422;17.930;2023-02-13T06:28:55;2.60;99.90
44695;DHT22;32845;59.422;17.930;2023-02-13T06:33:25;2.60;99.90
44695;DHT22;32845;59.422;17.930;2023-02-13T06:37:56;2.60;99.90
44695;DHT22;32845;59.422;17.930;2023-02-13T06:42:27;2.60;99.90
44695;DHT22;32845;59.422;17.930;2023-02-13T06:46:57;2.60;99.90
44695;DHT22;32845;59.422;17.930;2023-02-13T06:51:28;2.60;99.90
44695;DHT22;32845;59.422;17.930;2023-02-13T06:56:03;2.50;99.90
44695;DHT22;32845;59.422;17.930;2023-02-13T07:00:34;2.50;99.90
44695;DHT22;32845;59.422;17.930;2023-02-13T07:05:07;2.50;99.90
44695;DHT22;32845;59.422;17.930;2023-02-13T07:09:38;2.50;99.90
44695;DHT22;32845;59.422;17.930;2023-02-13T07:14:10;2.50;99.90
44695;DHT22;32845;59.422;17.930;2023-02-13T07:18:41;2.50;99.90
44695;DHT22;32845;59.422;17.930;2023-02-13T07:23:12;2.50;99.90
44695;DHT22;32845;59.422;17.930;2023-02-13T07:27:42;2.40;99.90
44695;DHT22;32845;59.422;17.930;2023-02-13T07:32:13;2.40;99.90
44695;DHT22;32845;59.422;17.930;2023-02-13T07:36:44;2.40;99.90
44695;DHT22;32845;59.422;17.930;2023-02-13T07:41:15;2.40;99.90
44695;DHT22;32845;59.422;17.930;2023-02-13T07:45:45;2.40;99.90
44695;DHT22;32845;59.422;17.930;2023-02-13T07:50:16;2.40;99.90
44695;DHT22;32845;59.422;17.930;2023-02-13T07:54:47;2.50;99.90
44695;DHT22;32845;59.422;17.930;2023-02-13T07:59:18;2.50;99.90
44695;DHT22;32845;59.422;17.930;2023-02-13T08:03:49;2.60;99.90
44695;DHT22;32845;59.422;17.930;2023-02-13T08:08:22;2.60;99.90
44695;DHT22;32845;59.422;17.930;2023-02-13T08:12:53;2.70;99.90
44695;DHT22;32845;59.422;17.930;2023-02-13T08:17:24;2.70;99.90
44695;DHT22;32845;59.422;17.930;2023-02-13T08:21:55;2.80;99.90
44695;DHT22;32845;59.422;17.930;2023-02-13T08:26:26;2.90;99.90
44695;DHT22;32845;59.422;17.930;2023-02-13T08:30:56;3.00;99.90
44695;DHT22;32845;59.422;17.930;2023-02-13T08:35:27;3.10;99.90
44695;DHT22;32845;59.422;17.930;2023-02-13T08:40:00;3.10;99.90
44695;DHT22;32845;59.422;17.930;2023-02-13T08:44:31;3.20;99.90
44695;DHT22;32845;59.422;17.930;2023-02-13T08:49:02;3.30;99.90
44695;DHT22;32845;59.422;17.930;2023-02-13T08:53:33;3.40;99.90
44695;DHT22;32845;59.422;17.930;2023-02-13T08:58:04;3.50;99.90
44695;DHT22;32845;59.422;17.930;2023-02-13T09:02:35;3.60;99.90
44695;DHT22;32845;59.422;17.930;2023-02-13T09:07:05;3.70;99.90
44695;DHT22;32845;59.422;17.930;2023-02-13T09:11:36;3.80;99.90
44695;DHT22;32845;59.422;17.930;2023-02-13T09:16:07;4.00;99.90
44695;DHT22;32845;59.422;17.930;2023-02-13T09:20:38;4.10;99.90
44695;DHT22;32845;59.422;17.930;2023-02-13T09:25:09;4.20;99.90
44695;DHT22;32845;59.422;17.930;2023-02-13T09:29:40;4.30;99.90
44695;DHT22;32845;59.422;17.930;2023-02-13T09:34:10;4.50;99.90
44695;DHT22;32845;59.422;17.930;2023-02-13T09:38:41;4.60;99.90
44695;DHT22;32845;59.422;17.930;2023-02-13T09:43:30;4.80;99.90
44695;DHT22;32845;59.422;17.930;2023-02-13T09:48:01;4.90;99.90
44695;DHT22;32845;59.422;17.930;2023-02-13T09:52:35;5.00;99.90
44695;DHT22;32845;59.422;17.930;2023-02-13T09:57:14;5.10;99.90
44695;DHT22;32845;59.422;17.930;2023-02-13T10:01:48;5.20;99.90
44695;DHT22;32845;59.422;17.930;2023-02-13T10:06:35;5.40;99.90
44695;DHT22;32845;59.422;17.930;2023-02-13T10:16:18;5.70;99.90
44695;DHT22;32845;59.422;17.930;2023-02-13T10:20:53;5.90;99.90
44695;DHT22;32845;59.422;17.930;2023-02-13T10:25:27;6.20;99.90
44695;DHT22;32845;59.422;17.930;2023-02-13T10:30:35;6.50;99.90
44695;DHT22;32845;59.422;17.930;2023-02-13T10:39:51;7.20;99.90
44695;DHT22;32845;59.422;17.930;2023-02-13T10:50:05;7.40;99.90
44695;DHT22;32845;59.422;17.930;2023-02-13T11:04:43;7.30;99.90
44695;DHT22;32845;59.422;17.930;2023-02-13T11:09:13;7.40;99.90
44695;DHT22;32845;59.422;17.930;2023-02-13T11:13:44;7.40;99.90
44695;DHT22;32845;59.422;17.930;2023-02-13T11:18:20;7.50;99.90
44695;DHT22;32845;59.422;17.930;2023-02-13T11:22:51;7.50;99.90
44695;DHT22;32845;59.422;17.930;2023-02-13T11:27:35;7.50;99.90
44695;DHT22;32845;59.422;17.930;2023-02-13T11:32:21;7.60;99.90
44695;DHT22;32845;59.422;17.930;2023-02-13T11:37:06;7.80;99.90
44695;DHT22;32845;59.422;17.930;2023-02-13T11:41:42;8.10;99.90
44695;DHT22;32845;59.422;17.930;2023-02-13T11:46:22;8.30;99.90
44695;DHT22;32845;59.422;17.930;2023-02-13T11:50:54;8.50;99.90
44695;DHT22;32845;59.422;17.930;2023-02-13T11:55:39;8.70;99.90
44695;DHT22;32845;59.422;17.930;2023-02-13T12:00:34;9.00;99.90
44695;DHT22;32845;59.422;17.930;2023-02-13T12:10:04;9.20;99.90
44695;DHT22;32845;59.422;17.930;2023-02-13T12:14:42;9.20;99.90
44695;DHT22;32845;59.422;17.930;2023-02-13T12:19:18;9.30;99.90
44695;DHT22;32845;59.422;17.930;2023-02-13T12:53:35;9.50;99.90
44695;DHT22;32845;59.422;17.930;2023-02-13T13:03:04;9.10;99.90
44695;DHT22;32845;59.422;17.930;2023-02-13T13:12:50;8.70;99.90
44695;DHT22;32845;59.422;17.930;2023-02-13T13:17:31;8.50;99.90
44695;DHT22;32845;59.422;17.930;2023-02-13T13:22:11;8.40;99.90
44695;DHT22;32845;59.422;17.930;2023-02-13T13:26:47;8.20;99.90
44695;DHT22;32845;59.422;17.930;2023-02-13T13:31:20;8.20;99.90
44695;DHT22;32845;59.422;17.930;2023-02-13T13:36:20;8.20;99.90
44695;DHT22;32845;59.422;17.930;2023-02-13T13:40:53;8.40;99.90
44695;DHT22;32845;59.422;17.930;2023-02-13T13:50:03;8.60;99.90
44695;DHT22;32845;59.422;17.930;2023-02-13T13:54:36;8.50;99.90
44695;DHT22;32845;59.422;17.930;2023-02-13T13:59:16;8.40;99.90
44695;DHT22;32845;59.422;17.930;2023-02-13T14:03:52;8.20;99.90
44695;DHT22;32845;59.422;17.930;2023-02-13T14:13:28;7.90;99.90
44695;DHT22;32845;59.422;17.930;2023-02-13T14:22:41;7.70;99.90
44695;DHT22;32845;59.422;17.930;2023-02-13T14:27:33;7.60;99.90
44695;DHT22;32845;59.422;17.930;2023-02-13T14:32:16;7.50;99.90
44695;DHT22;32845;59.422;17.930;2023-02-13T14:37:27;7.50;99.90
44695;DHT22;32845;59.422;17.930;2023-02-13T14:42:01;7.40;99.90
44695;DHT22;32845;59.422;17.930;2023-02-13T14:46:37;7.30;99.90
44695;DHT22;32845;59.422;17.930;2023-02-13T14:51:23;7.20;99.90
44695;DHT22;32845;59.422;17.930;2023-02-13T14:56:06;7.10;99.90
44695;DHT22;32845;59.422;17.930;2023-02-13T15:05:35;6.90;99.90
44695;DHT22;32845;59.422;17.930;2023-02-13T15:10:33;6.80;99.90
44695;DHT22;32845;59.422;17.930;2023-02-13T15:15:48;6.70;99.90
44695;DHT22;32845;59.422;17.930;2023-02-13T15:20:26;6.60;99.90
44695;DHT22;32845;59.422;17.930;2023-02-13T15:24:58;6.50;99.90
44695;DHT22;32845;59.422;17.930;2023-02-13T15:29:29;6.40;99.90
44695;DHT22;32845;59.422;17.930;2023-02-13T15:34:00;6.30;99.90
44695;DHT22;32845;59.422;17.930;2023-02-13T15:38:35;6.20;99.90
44695;DHT22;32845;59.422;17.930;2023-02-13T15:43:50;6.20;99.90
44695;DHT22;32845;59.422;17.930;2023-02-13T15:48:16;6.10;99.90
44695;DHT22;32845;59.422;17.930;2023-02-13T15:52:47;6.00;99.90
44695;DHT22;32845;59.422;17.930;2023-02-13T15:57:19;6.00;99.90
44695;DHT22;32845;59.422;17.930;2023-02-13T16:01:50;5.90;99.90
44695;DHT22;32845;59.422;17.930;2023-02-13T16:06:22;5.90;99.90
44695;DHT22;32845;59.422;17.930;2023-02-13T16:11:16;5.80;99.90
44695;DHT22;32845;59.422;17.930;2023-02-13T16:15:47;5.70;99.90
44695;DHT22;32845;59.422;17.930;2023-02-13T16:20:21;5.60;99.90
44695;DHT22;32845;59.422;17.930;2023-02-13T16:24:57;5.60;99.90
44695;DHT22;32845;59.422;17.930;2023-02-13T16:29:29;5.50;99.90
44695;DHT22;32845;59.422;17.930;2023-02-13T16:34:25;5.50;99.90
44695;DHT22;32845;59.422;17.930;2023-02-13T16:38:56;5.50;99.90
44695;DHT22;32845;59.422;17.930;2023-02-13T16:43:46;5.50;99.90
44695;DHT22;32845;59.422;17.930;2023-02-13T16:48:23;5.40;99.90
44695;DHT22;32845;59.422;17.930;2023-02-13T16:53:02;5.40;99.90
44695;DHT22;32845;59.422;17.930;2023-02-13T16:57:33;5.40;99.90
44695;DHT22;32845;59.422;17.930;2023-02-13T17:02:26;5.40;99.90
44695;DHT22;32845;59.422;17.930;2023-02-13T17:06:57;5.40;99.90
44695;DHT22;32845;59.422;17.930;2023-02-13T17:11:27;5.40;99.90
44695;DHT22;32845;59.422;17.930;2023-02-13T17:15:58;5.40;99.90
44695;DHT22;32845;59.422;17.930;2023-02-13T17:20:31;5.50;99.90
44695;DHT22;32845;59.422;17.930;2023-02-13T17:25:06;5.50;99.90
44695;DHT22;32845;59.422;17.930;2023-02-13T17:29:37;5.50;99.90
44695;DHT22;32845;59.422;17.930;2023-02-13T17:34:10;5.50;99.90
44695;DHT22;32845;59.422;17.930;2023-02-13T17:38:41;5.50;99.90
44695;DHT22;32845;59.422;17.930;2023-02-13T17:43:12;5.50;99.90
44695;DHT22;32845;59.422;17.930;2023-02-13T17:47:43;5.50;99.90
44695;DHT22;32845;59.422;17.930;2023-02-13T17:52:18;5.50;99.90
44695;DHT22;32845;59.422;17.930;2023-02-13T17:56:50;5.50;99.90
44695;DHT22;32845;59.422;17.930;2023-02-13T18:01:21;5.50;99.90
44695;DHT22;32845;59.422;17.930;2023-02-13T18:05:51;5.50;99.90
44695;DHT22;32845;59.422;17.930;2023-02-13T18:10:25;5.50;99.90
44695;DHT22;32845;59.422;17.930;2023-02-13T18:14:56;5.50;99.90
44695;DHT22;32845;59.422;17.930;2023-02-13T18:19:27;5.50;99.90
44695;DHT22;32845;59.422;17.930;2023-02-13T18:23:58;5.40;99.90
44695;DHT22;32845;59.422;17.930;2023-02-13T18:28:28;5.40;99.90
44695;DHT22;32845;59.422;17.930;2023-02-13T18:32:59;5.40;99.90
44695;DHT22;32845;59.422;17.930;2023-02-13T18:37:34;5.40;99.90
44695;DHT22;32845;59.422;17.930;2023-02-13T18:42:05;5.40;99.90
44695;DHT22;32845;59.422;17.930;2023-02-13T18:46:36;5.40;99.90
44695;DHT22;32845;59.422;17.930;2023-02-13T18:51:07;5.40;99.90
44695;DHT22;32845;59.422;17.930;2023-02-13T18:55:38;5.30;99.90
44695;DHT22;32845;59.422;17.930;2023-02-13T19:00:09;5.40;99.90
44695;DHT22;32845;59.422;17.930;2023-02-13T19:04:40;5.40;99.90
44695;DHT22;32845;59.422;17.930;2023-02-13T19:09:11;5.40;99.90
44695;DHT22;32845;59.422;17.930;2023-02-13T19:13:43;5.50;99.90
44695;DHT22;32845;59.422;17.930;2023-02-13T19:18:14;5.50;99.90
44695;DHT22;32845;59.422;17.930;2023-02-13T19:22:45;5.60;99.90
44695;DHT22;32845;59.422;17.930;2023-02-13T19:27:15;5.60;99.90
44695;DHT22;32845;59.422;17.930;2023-02-13T19:31:47;5.60;99.90
44695;DHT22;32845;59.422;17.930;2023-02-13T19:36:20;5.70;99.90
44695;DHT22;32845;59.422;17.930;2023-02-13T19:40:51;5.70;99.90
44695;DHT22;32845;59.422;17.930;2023-02-13T19:45:23;5.70;99.90
44695;DHT22;32845;59.422;17.930;2023-02-13T19:49:54;5.70;99.90
44695;DHT22;32845;59.422;17.930;2023-02-13T19:54:24;5.70;99.90
44695;DHT22;32845;59.422;17.930;2023-02-13T19:58:55;5.80;99.90
44695;DHT22;32845;59.422;17.930;2023-02-13T20:03:26;5.80;99.90
44695;DHT22;32845;59.422;17.930;2023-02-13T20:07:57;5.80;99.90
44695;DHT22;32845;59.422;17.930;2023-02-13T20:12:28;5.80;99.90
44695;DHT22;32845;59.422;17.930;2023-02-13T20:16:58;5.80;99.90
44695;DHT22;32845;59.422;17.930;2023-02-13T20:21:29;5.80;99.90
44695;DHT22;32845;59.422;17.930;2023-02-13T20:26:05;5.80;99.90
44695;DHT22;32845;59.422;17.930;2023-02-13T20:30:42;5.80;99.90
44695;DHT22;32845;59.422;17.930;2023-02-13T20:35:12;5.80;99.90
44695;DHT22;32845;59.422;17.930;2023-02-13T20:39:43;5.80;99.90
44695;DHT22;32845;59.422;17.930;2023-02-13T20:44:14;5.80;99.90
44695;DHT22;32845;59.422;17.930;2023-02-13T20:48:47;5.80;99.90
44695;DHT22;32845;59.422;17.930;2023-02-13T20:53:18;5.80;99.90
44695;DHT22;32845;59.422;17.930;2023-02-13T20:57:48;5.70;99.90
44695;DHT22;32845;59.422;17.930;2023-02-13T21:02:19;5.70;99.90
44695;DHT22;32845;59.422;17.930;2023-02-13T21:06:50;5.70;99.90
44695;DHT22;32845;59.422;17.930;2023-02-13T21:11:21;5.60;99.90
44695;DHT22;32845;59.422;17.930;2023-02-13T21:15:52;5.60;99.90
44695;DHT22;32845;59.422;17.930;2023-02-13T21:20:29;5.60;99.90
44695;DHT22;32845;59.422;17.930;2023-02-13T21:24:59;5.70;99.90
44695;DHT22;32845;59.422;17.930;2023-02-13T21:29:30;5.70;99.90
44695;DHT22;32845;59.422;17.930;2023-02-13T21:34:03;5.60;99.90
44695;DHT22;32845;59.422;17.930;2023-02-13T21:38:35;5.60;99.90
44695;DHT22;32845;59.422;17.930;2023-02-13T21:43:06;5.60;99.90
44695;DHT22;32845;59.422;17.930;2023-02-13T21:47:37;5.60;99.90
44695;DHT22;32845;59.422;17.930;2023-02-13T21:52:08;5.60;99.90
44695;DHT22;32845;59.422;17.930;2023-02-13T21:56:41;5.60;99.90
44695;DHT22;32845;59.422;17.930;2023-02-13T22:01:23;5.60;99.90
44695;DHT22;32845;59.422;17.930;2023-02-13T22:05:54;5.60;99.90
44695;DHT22;32845;59.422;17.930;2023-02-13T22:10:25;5.60;99.90
44695;DHT22;32845;59.422;17.930;2023-02-13T22:14:56;5.50;99.90
44695;DHT22;32845;59.422;17.930;2023-02-13T22:19:26;5.50;99.90
44695;DHT22;32845;59.422;17.930;2023-02-13T22:23:57;5.50;99.90
44695;DHT22;32845;59.422;17.930;2023-02-13T22:28:29;5.50;99.90
44695;DHT22;32845;59.422;17.930;2023-02-13T22:32:59;5.40;99.90
44695;DHT22;32845;59.422;17.930;2023-02-13T22:37:31;5.40;99.90
44695;DHT22;32845;59.422;17.930;2023-02-13T22:42:01;5.40;99.90
44695;DHT22;32845;59.422;17.930;2023-02-13T22:46:33;5.40;99.90
44695;DHT22;32845;59.422;17.930;2023-02-13T22:51:09;5.40;99.90
44695;DHT22;32845;59.422;17.930;2023-02-13T22:55:40;5.40;99.90
44695;DHT22;32845;59.422;17.930;2023-02-13T23:00:13;5.40;99.90
44695;DHT22;32845;59.422;17.930;2023-02-13T23:04:47;5.40;99.90
44695;DHT22;32845;59.422;17.930;2023-02-13T23:09:17;5.40;99.90
44695;DHT22;32845;59.422;17.930;2023-02-13T23:13:48;5.40;99.90
44695;DHT22;32845;59.422;17.930;2023-02-13T23:18:19;5.40;99.90
44695;DHT22;32845;59.422;17.930;2023-02-13T23:22:50;5.40;99.90
44695;DHT22;32845;59.422;17.930;2023-02-13T23:27:23;5.30;99.90
44695;DHT22;32845;59.422;17.930;2023-02-13T23:31:54;5.30;99.90
44695;DHT22;32845;59.422;17.930;2023-02-13T23:36:24;5.30;99.90
44695;DHT22;32845;59.422;17.930;2023-02-13T23:40:55;5.20;99.90
44695;DHT22;32845;59.422;17.930;2023-02-13T23:45:26;5.20;99.90
44695;DHT22;32845;59.422;17.930;2023-02-13T23:49:56;5.20;99.90
44695;DHT22;32845;59.422;17.930;2023-02-13T23:54:27;5.20;99.90
44695;DHT22;32845;59.422;17.930;2023-02-13T23:58:58;5.20;99.90
